Terminal Aerodrome Forecast
Issued by NWS Louisville, KY

Home | Current Version | Previous Version | Text Only | Print | Product List | Glossary On
Versions: 1 2 3 4 5 6 7 8 9 10 11 12 13 14 15 16 17
000
FTUS43 KLMK 180900 AAA
TAFLEX
TAF AMD
KLEX 180908Z 1809/1906 34005KT P6SM OVC018
     FM181500 VRB04KT P6SM FEW020 BKN060
     FM181800 33005KT P6SM BKN025=

USA.gov is the U.S. government's official web portal to all federal, state and local government web resources and services.